Flight Track Log - Related Links

Times and Time Zones

All times are in EDT time to prevent confusion due to time zone crossing. See the DAT465 flight status page for this flight to view local times or setup timezone preferences in your user account.

Time Position Orientation Groundspeed Altitude Reporting Facility
EDT Latitude Longitude Course Direction KTS MPH feet Rate Location/Type
Tue 04:05:15 PM 0.0715 32.4324 339° North  Level Estimated
Tue 04:06:15 PM 0.1880 32.3880 339° North  Level Estimated
Tue 04:07:15 PM 0.3045 32.3436 339° North  Level Estimated
Tue 04:08:15 PM 0.4210 32.2991 339° North  Level Estimated
Tue 04:09:15 PM 0.5375 32.2547 339° North  Level Estimated
Tue 04:10:15 PM 0.6541 32.2103 339° North  Level Estimated
Tue 04:11:15 PM 0.7706 32.1659 339° North  Level Estimated
Tue 04:12:15 PM 0.8871 32.1215 339° North  Level Estimated
Tue 04:13:15 PM 1.0036 32.0770 339° North  Level Estimated
Tue 04:14:15 PM 1.1201 32.0326 339° North  Level Estimated
Tue 04:15:15 PM 1.2366 31.9882 339° North  Level Estimated
Tue 04:16:15 PM 1.3531 31.9438 339° North  Level Estimated
Tue 04:17:15 PM 1.4696 31.8993 339° North  Level Estimated
Tue 04:18:15 PM 1.5861 31.8549 339° North  Level Estimated
Tue 04:19:15 PM 1.7026 31.8104 339° North  Level Estimated
Tue 04:20:15 PM 1.8191 31.7659 339° North  Level Estimated
Tue 04:21:15 PM 1.9356 31.7215 339° North  Level Estimated
Tue 04:22:15 PM 2.0521 31.6770 339° North  Level Estimated
Tue 04:23:15 PM 2.1686 31.6325 339° North  Level Estimated
Tue 04:24:15 PM 2.2851 31.5881 339° North  Level Estimated
Tue 04:25:15 PM 2.4016 31.5436 339° North  Level Estimated
Tue 04:26:15 PM 2.5181 31.4991 339° North  Level Estimated
Tue 04:27:15 PM 2.6346 31.4546 339° North  Level Estimated
Tue 04:28:15 PM 2.7511 31.4101 339° North  Level Estimated
Tue 04:29:15 PM 2.8676 31.3655 339° North  Level Estimated
Tue 04:30:15 PM 2.9841 31.3210 339° North  Level Estimated
Tue 04:31:15 PM 3.1006 31.2765 339° North  Level Estimated
Tue 04:32:15 PM 3.2171 31.2319 339° North  Level Estimated
Tue 04:33:15 PM 3.3336 31.1874 339° North  Level Estimated
Tue 04:34:15 PM 3.4500 31.1428 339° North  Level Estimated
Tue 04:35:15 PM 3.5665 31.0982 339° North  Level Estimated
Tue 04:36:15 PM 3.6830 31.0536 339° North  Level Estimated
Tue 04:37:15 PM 3.7995 31.0090 339° North  Level Estimated
Tue 04:38:15 PM 3.9160 30.9644 339° North  Level Estimated
Tue 04:39:15 PM 4.0324 30.9198 339° North  Level Estimated
Tue 04:40:15 PM 4.1489 30.8751 339° North  Level Estimated
Tue 04:41:15 PM 4.2654 30.8305 339° North  Level Estimated
Tue 04:42:15 PM 4.3818 30.7858 339° North  Level Estimated
Tue 04:43:15 PM 4.4983 30.7411 339° North  Level Estimated
Tue 04:44:15 PM 4.6147 30.6964 339° North  Level Estimated
Tue 04:45:15 PM 4.7312 30.6517 339° North  Level Estimated
Tue 04:46:15 PM 4.8476 30.6070 339° North  Level Estimated
Tue 04:47:15 PM 4.9641 30.5623 339° North  Level Estimated
Tue 04:48:15 PM 5.0805 30.5175 339° North  Level Estimated
Tue 04:49:15 PM 5.1970 30.4727 339° North  Level Estimated
Tue 04:50:15 PM 5.3134 30.4279 339° North  Level Estimated
Tue 04:51:15 PM 5.4299 30.3831 339° North  Level Estimated
Tue 04:52:15 PM 5.5463 30.3383 339° North  Level Estimated
Tue 04:53:15 PM 5.6627 30.2935 339° North  Level Estimated
Tue 04:54:15 PM 5.7792 30.2486 339° North  Level Estimated
Tue 04:55:15 PM 5.8956 30.2037 339° North  Level Estimated
Tue 04:56:15 PM 6.0120 30.1588 339° North  Level Estimated
Tue 04:57:15 PM 6.1284 30.1139 339° North  Level Estimated
Tue 04:58:15 PM 6.2448 30.0690 339° North  Level Estimated
Tue 04:59:15 PM 6.3612 30.0240 339° North  Level Estimated
Tue 05:00:15 PM 6.4776 29.9790 339° North  Level Estimated
Tue 05:01:15 PM 6.5940 29.9340 339° North  Level Estimated
Tue 05:02:15 PM 6.7104 29.8890 339° North  Level Estimated
Tue 05:03:15 PM 6.8268 29.8440 339° North  Level Estimated
Tue 05:04:15 PM 6.9432 29.7989 339° North  Level Estimated
Tue 05:05:15 PM 7.0596 29.7538 339° North  Level Estimated
Tue 05:06:15 PM 7.1760 29.7087 339° North  Level Estimated
Tue 05:07:15 PM 7.2923 29.6636 339° North  Level Estimated
Tue 05:08:15 PM 7.4087 29.6184 339° North  Level Estimated
Tue 05:09:15 PM 7.5251 29.5732 339° North  Level Estimated
Tue 05:10:15 PM 7.6414 29.5280 339° North  Level Estimated
Tue 05:11:15 PM 7.7578 29.4828 339° North  Level Estimated
Tue 05:12:15 PM 7.8741 29.4376 339° North  Level Estimated
Tue 05:13:15 PM 7.9905 29.3923 339° North  Level Estimated
Tue 05:14:15 PM 8.1068 29.3470 339° North  Level Estimated
Tue 05:15:15 PM 8.2232 29.3017 339° North  Level Estimated
Tue 05:16:15 PM 8.3395 29.2563 339° North  Level Estimated
Tue 05:17:15 PM 8.4558 29.2109 339° North  Level Estimated
Tue 05:18:15 PM 8.5722 29.1655 339° North  Level Estimated
Tue 05:19:15 PM 8.6885 29.1201 339° North  Level Estimated
Tue 05:20:15 PM 8.8048 29.0746 339° North  Level Estimated
Tue 05:21:15 PM 8.9211 29.0291 339° North  Level Estimated
Tue 05:22:15 PM 9.0374 28.9836 339° North  Level Estimated
Tue 05:23:15 PM 9.1537 28.9381 339° North  Level Estimated
Tue 05:24:15 PM 9.2700 28.8925 339° North  Level Estimated
Tue 05:25:15 PM 9.3862 28.8469 339° North  Level Estimated
Tue 05:26:15 PM 9.5025 28.8012 339° North  Level Estimated
Tue 05:27:15 PM 9.6188 28.7556 339° North  Level Estimated
Tue 05:28:15 PM 9.7351 28.7099 339° North  Level Estimated
Tue 05:29:15 PM 9.8513 28.6641 339° North  Level Estimated
Tue 05:30:15 PM 9.9676 28.6183 339° North  Level Estimated
Tue 05:31:15 PM 10.0838 28.5725 339° North  Level Estimated
Tue 05:32:15 PM 10.2001 28.5267 339° North  Level Estimated
Tue 05:33:15 PM 10.3163 28.4808 339° North  Level Estimated
Tue 05:34:15 PM 10.4325 28.4349 339° North  Level Estimated
Tue 05:35:15 PM 10.5487 28.3890 339° North  Level Estimated
Tue 05:36:15 PM 10.6650 28.3430 339° North  Level Estimated
Tue 05:37:15 PM 10.7812 28.2970 339° North  Level Estimated
Tue 05:38:15 PM 10.8974 28.2510 339° North  Level Estimated
Tue 05:39:15 PM 11.0135 28.2049 339° North  Level Estimated
Tue 05:40:15 PM 11.1297 28.1588 339° North  Level Estimated
Tue 05:41:15 PM 11.2459 28.1126 339° North  Level Estimated
Tue 05:42:15 PM 11.3621 28.0665 339° North  Level Estimated
Tue 05:43:15 PM 11.4783 28.0202 339° North  Level Estimated
Tue 05:44:15 PM 11.5944 27.9740 339° North  Level Estimated
Tue 05:45:15 PM 11.7106 27.9277 339° North  Level Estimated
Tue 05:46:15 PM 11.8267 27.8813 339° North  Level Estimated
Tue 05:47:15 PM 11.9429 27.8349 339° North  Level Estimated
Tue 05:48:15 PM 12.0590 27.7885 339° North  Level Estimated
Tue 05:49:15 PM 12.1751 27.7421 339° North  Level Estimated
Tue 05:50:15 PM 12.2912 27.6956 339° North  Level Estimated
Tue 05:51:15 PM 12.4073 27.6490 339° North  Level Estimated
Tue 05:52:15 PM 12.5234 27.6024 339° North  Level Estimated
Tue 05:53:15 PM 12.6395 27.5558 339° North  Level Estimated
Tue 05:54:15 PM 12.7556 27.5091 339° North  Level Estimated
Tue 05:55:15 PM 12.8716 27.4624 339° North  Level Estimated
Tue 05:56:15 PM 12.9877 27.4157 339° North  Level Estimated
Tue 05:57:15 PM 13.1038 27.3689 339° North  Level Estimated
Tue 05:58:15 PM 13.2198 27.3220 339° North  Level Estimated
Tue 05:59:15 PM 13.3359 27.2751 339° North  Level Estimated
Tue 06:00:15 PM 13.4519 27.2282 339° North  Level Estimated
Tue 06:01:15 PM 13.5679 27.1812 339° North  Level Estimated
Tue 06:02:15 PM 13.6839 27.1342 338° Northwest  Level Estimated
Tue 06:03:15 PM 13.7999 27.0871 338° Northwest  Level Estimated
Tue 06:04:15 PM 13.9159 27.0400 338° Northwest  Level Estimated
Tue 06:05:15 PM 14.0319 26.9928 338° Northwest  Level Estimated
Tue 06:06:15 PM 14.1479 26.9456 338° Northwest  Level Estimated
Tue 06:07:15 PM 14.2639 26.8984 338° Northwest  Level Estimated
Tue 06:08:15 PM 14.3798 26.8511 338° Northwest  Level Estimated
Tue 06:09:15 PM 14.4958 26.8037 338° Northwest  Level Estimated
Tue 06:10:15 PM 14.6117 26.7563 338° Northwest  Level Estimated
Tue 06:11:15 PM 14.7276 26.7088 338° Northwest  Level Estimated
Tue 06:12:15 PM 14.8435 26.6613 338° Northwest  Level Estimated
Tue 06:13:15 PM 14.9595 26.6138 338° Northwest  Level Estimated
Tue 06:14:15 PM 15.0754 26.5662 338° Northwest  Level Estimated
Tue 06:15:15 PM 15.1912 26.5185 338° Northwest  Level Estimated
Tue 06:16:15 PM 15.3071 26.4708 338° Northwest  Level Estimated
Tue 06:17:15 PM 15.4230 26.4230 338° Northwest  Level Estimated
Tue 06:18:15 PM 15.5389 26.3752 338° Northwest  Level Estimated
Tue 06:19:15 PM 15.6547 26.3273 338° Northwest  Level Estimated
Tue 06:20:15 PM 15.7705 26.2794 338° Northwest  Level Estimated
Tue 06:21:15 PM 15.8864 26.2314 338° Northwest  Level Estimated
Tue 06:22:15 PM 16.0022 26.1834 338° Northwest  Level Estimated
Tue 06:23:15 PM 16.1180 26.1353 338° Northwest  Level Estimated
Tue 06:24:15 PM 16.2338 26.0871 338° Northwest  Level Estimated
Tue 06:25:15 PM 16.3496 26.0389 338° Northwest  Level Estimated
Tue 06:26:15 PM 16.4654 25.9907 338° Northwest  Level Estimated
Tue 06:27:15 PM 16.5811 25.9423 338° Northwest  Level Estimated
Tue 06:28:15 PM 16.6969 25.8939 338° Northwest  Level Estimated
Tue 06:29:15 PM 16.8126 25.8455 338° Northwest  Level Estimated
Tue 06:30:15 PM 16.9284 25.7970 338° Northwest  Level Estimated
Tue 06:31:15 PM 17.0441 25.7484 338° Northwest  Level Estimated
Tue 06:32:15 PM 17.1598 25.6998 338° Northwest  Level Estimated
Tue 06:33:15 PM 17.2755 25.6511 338° Northwest  Level Estimated
Tue 06:34:15 PM 17.3912 25.6024 338° Northwest  Level Estimated
Tue 06:35:15 PM 17.5068 25.5536 338° Northwest  Level Estimated
Tue 06:36:15 PM 17.6225 25.5047 338° Northwest  Level Estimated
Tue 06:37:15 PM 17.7381 25.4558 338° Northwest  Level Estimated
Tue 06:38:15 PM 17.8538 25.4068 338° Northwest  Level Estimated
Tue 06:39:15 PM 17.9694 25.3578 338° Northwest  Level Estimated
Tue 06:40:15 PM 18.0850 25.3087 338° Northwest  Level Estimated
Tue 06:41:15 PM 18.2006 25.2595 338° Northwest  Level Estimated
Tue 06:42:15 PM 18.3162 25.2102 338° Northwest  Level Estimated
Tue 06:43:15 PM 18.4318 25.1609 338° Northwest  Level Estimated
Tue 06:44:15 PM 18.5473 25.1115 338° Northwest  Level Estimated
Tue 06:45:15 PM 18.6629 25.0621 338° Northwest  Level Estimated
Tue 06:46:15 PM 18.7784 25.0126 338° Northwest  Level Estimated
Tue 06:47:15 PM 18.8939 24.9630 338° Northwest  Level Estimated
Tue 06:48:15 PM 19.0094 24.9133 338° Northwest  Level Estimated
Tue 06:49:15 PM 19.1249 24.8636 338° Northwest  Level Estimated
Tue 06:50:15 PM 19.2404 24.8138 338° Northwest  Level Estimated
Tue 06:51:15 PM 19.3559 24.7640 338° Northwest  Level Estimated
Tue 06:52:15 PM 19.4713 24.7141 338° Northwest  Level Estimated
Tue 06:53:15 PM 19.5868 24.6640 338° Northwest  Level Estimated
Tue 06:54:15 PM 19.7022 24.6140 338° Northwest  Level Estimated
Tue 06:55:15 PM 19.8176 24.5638 338° Northwest  Level Estimated
Tue 06:56:15 PM 19.9330 24.5136 338° Northwest  Level Estimated
Tue 06:57:15 PM 20.0484 24.4633 338° Northwest  Level Estimated
Tue 06:58:15 PM 20.1638 24.4130 338° Northwest  Level Estimated
Tue 06:59:15 PM 20.2791 24.3625 338° Northwest  Level Estimated
Tue 07:00:15 PM 20.3945 24.3120 338° Northwest  Level Estimated
Tue 07:01:15 PM 20.5098 24.2614 338° Northwest  Level Estimated
Tue 07:02:15 PM 20.6251 24.2107 338° Northwest  Level Estimated
Tue 07:03:15 PM 20.7404 24.1600 338° Northwest  Level Estimated
Tue 07:04:15 PM 20.8557 24.1092 338° Northwest  Level Estimated
Tue 07:05:15 PM 20.9710 24.0583 338° Northwest  Level Estimated
Tue 07:06:15 PM 21.0862 24.0073 338° Northwest  Level Estimated
Tue 07:07:15 PM 21.2015 23.9562 338° Northwest  Level Estimated
Tue 07:08:15 PM 21.3167 23.9051 338° Northwest  Level Estimated
Tue 07:09:15 PM 21.4319 23.8539 338° Northwest  Level Estimated
Tue 07:10:15 PM 21.5471 23.8026 337° Northwest  Level Estimated
Tue 07:11:15 PM 21.6623 23.7512 337° Northwest  Level Estimated
Tue 07:12:15 PM 21.7774 23.6997 337° Northwest  Level Estimated
Tue 07:13:15 PM 21.8925 23.6482 337° Northwest  Level Estimated
Tue 07:14:15 PM 22.0077 23.5966 337° Northwest  Level Estimated
Tue 07:15:15 PM 22.1228 23.5448 337° Northwest  Level Estimated
Tue 07:16:15 PM 22.2379 23.4930 337° Northwest  Level Estimated
Tue 07:17:15 PM 22.3530 23.4412 337° Northwest  Level Estimated
Tue 07:18:15 PM 22.4680 23.3892 337° Northwest  Level Estimated
Tue 07:19:15 PM 22.5831 23.3372 337° Northwest  Level Estimated
Tue 07:20:15 PM 22.6981 23.2850 337° Northwest  Level Estimated
Tue 07:21:15 PM 22.8131 23.2328 337° Northwest  Level Estimated
Tue 07:22:15 PM 22.9281 23.1805 337° Northwest  Level Estimated
Tue 07:23:15 PM 23.0431 23.1280 337° Northwest  Level Estimated
Tue 07:24:15 PM 23.1581 23.0756 337° Northwest  Level Estimated
Tue 07:25:15 PM 23.2730 23.0230 337° Northwest  Level Estimated
Tue 07:26:15 PM 23.3879 22.9703 337° Northwest  Level Estimated
Tue 07:27:15 PM 23.5028 22.9175 337° Northwest  Level Estimated
Tue 07:28:15 PM 23.6177 22.8647 337° Northwest  Level Estimated
Tue 07:29:15 PM 23.7326 22.8117 337° Northwest  Level Estimated
Tue 07:30:15 PM 23.8474 22.7587 337° Northwest  Level Estimated
Tue 07:31:15 PM 23.9623 22.7055 337° Northwest  Level Estimated
Tue 07:32:15 PM 24.0771 22.6523 337° Northwest  Level Estimated
Tue 07:33:15 PM 24.1919 22.5990 337° Northwest  Level Estimated
Tue 07:34:15 PM 24.3067 22.5455 337° Northwest  Level Estimated
Tue 07:35:15 PM 24.4214 22.4920 337° Northwest  Level Estimated
Tue 07:36:15 PM 24.5362 22.4384 337° Northwest  Level Estimated
Tue 07:37:15 PM 24.6509 22.3847 337° Northwest  Level Estimated
Tue 07:38:15 PM 24.7656 22.3309 337° Northwest  Level Estimated
Tue 07:39:15 PM 24.8803 22.2769 337° Northwest  Level Estimated
Tue 07:40:15 PM 24.9950 22.2229 337° Northwest  Level Estimated
Tue 07:41:15 PM 25.1096 22.1688 337° Northwest  Level Estimated
Tue 07:42:15 PM 25.2242 22.1146 337° Northwest  Level Estimated
Tue 07:43:15 PM 25.3389 22.0602 337° Northwest  Level Estimated
Tue 07:44:15 PM 25.4534 22.0058 337° Northwest  Level Estimated
Tue 07:45:15 PM 25.5680 21.9513 337° Northwest  Level Estimated
Tue 07:46:15 PM 25.6826 21.8967 337° Northwest  Level Estimated
Tue 07:47:15 PM 25.7971 21.8419 337° Northwest  Level Estimated
Tue 07:48:15 PM 25.9116 21.7871 337° Northwest  Level Estimated
Tue 07:49:15 PM 26.0261 21.7321 337° Northwest  Level Estimated
Tue 07:50:15 PM 26.1406 21.6771 337° Northwest  Level Estimated
Tue 07:51:15 PM 26.2550 21.6219 337° Northwest  Level Estimated
Tue 07:52:15 PM 26.3694 21.5666 337° Northwest  Level Estimated
Tue 07:53:15 PM 26.4838 21.5112 337° Northwest  Level Estimated
Tue 07:54:15 PM 26.5982 21.4558 337° Northwest  Level Estimated
Tue 07:55:15 PM 26.7126 21.4002 336° Northwest  Level Estimated
Tue 07:56:15 PM 26.8269 21.3444 336° Northwest  Level Estimated
Tue 07:57:15 PM 26.9412 21.2886 336° Northwest  Level Estimated
Tue 07:58:15 PM 27.0555 21.2327 336° Northwest  Level Estimated
Tue 07:59:15 PM 27.1698 21.1766 336° Northwest  Level Estimated
Tue 08:00:15 PM 27.2840 21.1204 336° Northwest  Level Estimated
Tue 08:01:15 PM 27.3983 21.0641 336° Northwest  Level Estimated
Tue 08:02:15 PM 27.5125 21.0077 336° Northwest  Level Estimated
Tue 08:03:15 PM 27.6266 20.9512 336° Northwest  Level Estimated
Tue 08:04:15 PM 27.7408 20.8946 336° Northwest  Level Estimated
Tue 08:05:15 PM 27.8549 20.8378 336° Northwest  Level Estimated
Tue 08:06:15 PM 27.9690 20.7809 336° Northwest  Level Estimated
Tue 08:07:15 PM 28.0831 20.7239 336° Northwest  Level Estimated
Tue 08:08:15 PM 28.1972 20.6668 336° Northwest  Level Estimated
Tue 08:09:15 PM 28.3112 20.6096 336° Northwest  Level Estimated
Tue 08:10:15 PM 28.4252 20.5522 336° Northwest  Level Estimated
Tue 08:11:15 PM 28.5392 20.4947 336° Northwest  Level Estimated
Tue 08:12:15 PM 28.6532 20.4371 336° Northwest  Level Estimated
Tue 08:13:15 PM 28.7672 20.3794 336° Northwest  Level Estimated
Tue 08:14:15 PM 28.8811 20.3215 336° Northwest  Level Estimated
Tue 08:15:15 PM 28.9950 20.2635 336° Northwest  Level Estimated
Tue 08:16:15 PM 29.1088 20.2054 336° Northwest  Level Estimated
Tue 08:17:15 PM 29.2227 20.1472 336° Northwest  Level Estimated
Tue 08:18:15 PM 29.3365 20.0888 336° Northwest  Level Estimated
Tue 08:19:15 PM 29.4503 20.0303 336° Northwest  Level Estimated
Tue 08:20:15 PM 29.5641 19.9716 336° Northwest  Level Estimated
Tue 08:21:15 PM 29.6778 19.9128 336° Northwest  Level Estimated
Tue 08:22:15 PM 29.7915 19.8539 336° Northwest  Level Estimated
Tue 08:23:15 PM 29.9052 19.7949 336° Northwest  Level Estimated
Tue 08:24:15 PM 30.0189 19.7357 336° Northwest  Level Estimated
Tue 08:25:15 PM 30.1325 19.6764 336° Northwest  Level Estimated
Tue 08:26:15 PM 30.2461 19.6170 336° Northwest  Level Estimated
Tue 08:27:15 PM 30.3597 19.5574 336° Northwest  Level Estimated
Tue 08:28:15 PM 30.4732 19.4977 336° Northwest  Level Estimated
Tue 08:29:15 PM 30.5868 19.4378 336° Northwest  Level Estimated
Tue 08:30:15 PM 30.7003 19.3778 336° Northwest  Level Estimated
Tue 08:31:15 PM 30.8137 19.3177 335° Northwest  Level Estimated
Tue 08:32:15 PM 30.9272 19.2574 335° Northwest  Level Estimated
Tue 08:33:15 PM 31.0406 19.1970 335° Northwest  Level Estimated
Tue 08:34:15 PM 31.1540 19.1364 335° Northwest  Level Estimated
Tue 08:35:15 PM 31.2674 19.0757 335° Northwest  Level Estimated
Tue 08:36:15 PM 31.3807 19.0148 335° Northwest  Level Estimated
Tue 08:37:15 PM 31.4940 18.9538 335° Northwest  Level Estimated
Tue 08:38:15 PM 31.6073 18.8926 335° Northwest  Level Estimated
Tue 08:39:15 PM 31.7205 18.8313 335° Northwest  Level Estimated
Tue 08:40:15 PM 31.8337 18.7699 335° Northwest  Level Estimated
Tue 08:41:15 PM 31.9469 18.7083 335° Northwest  Level Estimated
Tue 08:42:15 PM 32.0601 18.6465 335° Northwest  Level Estimated
Tue 08:43:15 PM 32.1732 18.5846 335° Northwest  Level Estimated
Tue 08:44:15 PM 32.2863 18.5225 335° Northwest  Level Estimated
Tue 08:45:15 PM 32.3994 18.4603 335° Northwest  Level Estimated
Tue 08:46:15 PM 32.5124 18.3979 335° Northwest  Level Estimated
Tue 08:47:15 PM 32.6254 18.3354 335° Northwest  Level Estimated
Tue 08:48:15 PM 32.7384 18.2727 335° Northwest  Level Estimated
Tue 08:49:15 PM 32.8513 18.2098 335° Northwest  Level Estimated
Tue 08:50:15 PM 32.9642 18.1468 335° Northwest  Level Estimated
Tue 08:51:15 PM 33.0771 18.0837 335° Northwest  Level Estimated
Tue 08:52:15 PM 33.1900 18.0203 335° Northwest  Level Estimated
Tue 08:53:15 PM 33.3028 17.9568 335° Northwest  Level Estimated
Tue 08:54:15 PM 33.4156 17.8932 335° Northwest  Level Estimated
Tue 08:55:15 PM 33.5283 17.8293 335° Northwest  Level Estimated
Tue 08:56:15 PM 33.6410 17.7653 335° Northwest  Level Estimated
Tue 08:57:15 PM 33.7537 17.7012 335° Northwest  Level Estimated
Tue 08:58:15 PM 33.8664 17.6368 335° Northwest  Level Estimated
Tue 08:59:15 PM 33.9790 17.5723 335° Northwest  Level Estimated
Tue 09:00:15 PM 34.0916 17.5077 335° Northwest  Level Estimated
Tue 09:01:15 PM 34.2041 17.4428 334° Northwest  Level Estimated
Tue 09:02:15 PM 34.3166 17.3778 334° Northwest  Level Estimated
Tue 09:03:15 PM 34.4291 17.3126 334° Northwest  Level Estimated
Tue 09:04:15 PM 34.5415 17.2472 334° Northwest  Level Estimated
Tue 09:05:15 PM 34.6540 17.1817 334° Northwest  Level Estimated
Tue 09:06:15 PM 34.7663 17.1160 334° Northwest  Level Estimated
Tue 09:07:15 PM 34.8787 17.0501 334° Northwest  Level Estimated
Tue 09:08:15 PM 34.9910 16.9840 334° Northwest  Level Estimated
Tue 09:09:15 PM 35.1033 16.9177 334° Northwest  Level Estimated
Tue 09:10:15 PM 35.2155 16.8512 334° Northwest  Level Estimated
Tue 09:11:15 PM 35.3277 16.7846 334° Northwest  Level Estimated
Tue 09:12:15 PM 35.4398 16.7178 334° Northwest  Level Estimated
Tue 09:13:15 PM 35.5520 16.6508 334° Northwest  Level Estimated
Tue 09:14:15 PM 35.6641 16.5836 334° Northwest  Level Estimated
Tue 09:15:15 PM 35.7761 16.5162 334° Northwest  Level Estimated
Tue 09:16:15 PM 35.8881 16.4487 334° Northwest  Level Estimated
Tue 09:17:15 PM 36.0001 16.3809 334° Northwest  Level Estimated
Tue 09:18:15 PM 36.1120 16.3129 334° Northwest  Level Estimated
Tue 09:19:15 PM 36.2239 16.2448 334° Northwest  Level Estimated
Tue 09:20:15 PM 36.3358 16.1764 334° Northwest  Level Estimated
Tue 09:21:15 PM 36.4476 16.1079 334° Northwest  Level Estimated
Tue 09:22:15 PM 36.5594 16.0392 334° Northwest  Level Estimated
Tue 09:23:15 PM 36.6711 15.9702 334° Northwest  Level Estimated
Tue 09:24:15 PM 36.7828 15.9011 334° Northwest  Level Estimated
Tue 09:25:15 PM 36.8945 15.8317 334° Northwest  Level Estimated
Tue 09:26:15 PM 37.0061 15.7622 334° Northwest  Level Estimated
Tue 09:27:15 PM 37.1177 15.6924 333° Northwest  Level Estimated
Tue 09:28:15 PM 37.2292 15.6225 333° Northwest  Level Estimated
Tue 09:29:15 PM 37.3407 15.5523 333° Northwest  Level Estimated
Tue 09:30:15 PM 37.4522 15.4820 333° Northwest  Level Estimated
Tue 09:31:15 PM 37.5636 15.4114 333° Northwest  Level Estimated
Tue 09:32:15 PM 37.6749 15.3406 333° Northwest  Level Estimated
Tue 09:33:15 PM 37.7863 15.2696 333° Northwest  Level Estimated
Tue 09:34:15 PM 37.8976 15.1984 333° Northwest  Level Estimated
Tue 09:35:15 PM 38.0088 15.1270 333° Northwest  Level Estimated
Tue 09:36:15 PM 38.1200 15.0553 333° Northwest  Level Estimated
Tue 09:37:15 PM 38.2312 14.9834 333° Northwest  Level Estimated
Tue 09:38:15 PM 38.3423 14.9113 333° Northwest  Level Estimated
Tue 09:39:15 PM 38.4533 14.8390 333° Northwest  Level Estimated
Tue 09:40:15 PM 38.5644 14.7665 333° Northwest  Level Estimated
Tue 09:41:15 PM 38.6753 14.6937 333° Northwest  Level Estimated
Tue 09:42:15 PM 38.7863 14.6208 333° Northwest  Level Estimated
Tue 09:43:15 PM 38.8971 14.5476 333° Northwest  Level Estimated
Tue 09:44:15 PM 39.0080 14.4741 333° Northwest  Level Estimated
Tue 09:45:15 PM 39.1188 14.4004 333° Northwest  Level Estimated
Tue 09:46:15 PM 39.2295 14.3265 333° Northwest  Level Estimated
Tue 09:47:15 PM 39.3402 14.2524 333° Northwest  Level Estimated
Tue 09:48:15 PM 39.4509 14.1780 333° Northwest  Level Estimated
Tue 09:49:15 PM 39.5615 14.1034 332° Northwest  Level Estimated
Tue 09:50:15 PM 39.6721 14.0286 332° Northwest  Level Estimated
Tue 09:51:15 PM 39.7826 13.9535 332° Northwest  Level Estimated
Tue 09:52:15 PM 39.8930 13.8781 332° Northwest  Level Estimated
Tue 09:53:15 PM 40.0034 13.8026 332° Northwest  Level Estimated
Tue 09:54:15 PM 40.1138 13.7268 332° Northwest  Level Estimated
Tue 09:55:15 PM 40.2241 13.6507 332° Northwest  Level Estimated
Tue 09:56:15 PM 40.3344 13.5744 332° Northwest  Level Estimated
Tue 09:57:15 PM 40.4446 13.4978 332° Northwest  Level Estimated
Tue 09:58:15 PM 40.5547 13.4210 332° Northwest  Level Estimated
Tue 09:59:15 PM 40.6648 13.3440 332° Northwest  Level Estimated
Tue 10:00:15 PM 40.7749 13.2666 332° Northwest  Level Estimated
Tue 10:01:15 PM 40.8849 13.1891 332° Northwest  Level Estimated
Tue 10:02:15 PM 40.9949 13.1112 332° Northwest  Level Estimated
Tue 10:03:15 PM 41.1048 13.0331 332° Northwest  Level Estimated
Tue 10:04:15 PM 41.2146 12.9548 332° Northwest  Level Estimated
Tue 10:05:15 PM 41.3244 12.8762 332° Northwest  Level Estimated
Tue 10:06:15 PM 41.4342 12.7973 332° Northwest  Level Estimated
Tue 10:07:15 PM 41.5439 12.7181 332° Northwest  Level Estimated
Tue 10:08:15 PM 41.6535 12.6387 332° Northwest  Level Estimated
Tue 10:09:15 PM 41.7631 12.5590 331° Northwest  Level Estimated
Tue 10:10:15 PM 41.8726 12.4790 331° Northwest  Level Estimated
Tue 10:11:15 PM 41.9821 12.3988 331° Northwest  Level Estimated
Tue 10:12:15 PM 42.0915 12.3183 331° Northwest  Level Estimated
Tue 10:13:15 PM 42.2009 12.2375 331° Northwest  Level Estimated
Tue 10:14:15 PM 42.3102 12.1564 331° Northwest  Level Estimated
Tue 10:15:15 PM 42.4194 12.0751 331° Northwest  Level Estimated
Tue 10:16:15 PM 42.5286 11.9934 331° Northwest  Level Estimated
Tue 10:17:15 PM 42.6377 11.9115 331° Northwest  Level Estimated
Tue 10:18:15 PM 42.7468 11.8293 331° Northwest  Level Estimated
Tue 10:19:15 PM 42.8558 11.7468 331° Northwest  Level Estimated
Tue 10:20:15 PM 42.9647 11.6640 331° Northwest  Level Estimated
Tue 10:21:15 PM 43.0736 11.5809 331° Northwest  Level Estimated
Tue 10:22:15 PM 43.1825 11.4975 331° Northwest  Level Estimated
Tue 10:23:15 PM 43.2912 11.4139 331° Northwest  Level Estimated
Tue 10:24:15 PM 43.3999 11.3299 331° Northwest  Level Estimated
Tue 10:25:15 PM 43.5086 11.2456 331° Northwest  Level Estimated
Tue 10:26:15 PM 43.6172 11.1610 331° Northwest  Level Estimated
Tue 10:27:15 PM 43.7257 11.0761 330° Northwest  Level Estimated
Tue 10:28:15 PM 43.8342 10.9909 330° Northwest  Level Estimated
Tue 10:29:15 PM 43.9426 10.9054 330° Northwest  Level Estimated
Tue 10:30:15 PM 44.0509 10.8196 330° Northwest  Level Estimated
Tue 10:31:15 PM 44.1592 10.7334 330° Northwest  Level Estimated
Tue 10:32:15 PM 44.2674 10.6470 330° Northwest  Level Estimated
Tue 10:33:15 PM 44.3755 10.5602 330° Northwest  Level Estimated
Tue 10:34:15 PM 44.4836 10.4731 330° Northwest  Level Estimated
Tue 10:35:15 PM 44.5916 10.3857 330° Northwest  Level Estimated
Tue 10:36:15 PM 44.6995 10.2980 330° Northwest  Level Estimated
Tue 10:37:15 PM 44.8074 10.2099 330° Northwest  Level Estimated
Tue 10:38:15 PM 44.9152 10.1215 330° Northwest  Level Estimated
Tue 10:39:15 PM 45.0229 10.0328 330° Northwest  Level Estimated
Tue 10:40:15 PM 45.1306 9.9437 330° Northwest  Level Estimated
Tue 10:41:15 PM 45.2382 9.8543 330° Northwest  Level Estimated
Tue 10:42:15 PM 45.3457 9.7646 330° Northwest  Level Estimated
Tue 10:43:15 PM 45.4532 9.6745 329° Northwest  Level Estimated
Tue 10:44:15 PM 45.5605 9.5841 329° Northwest  Level Estimated
Tue 10:45:15 PM 45.6678 9.4933 329° Northwest  Level Estimated
Tue 10:46:15 PM 45.7751 9.4022 329° Northwest  Level Estimated
Tue 10:47:15 PM 45.8823 9.3107 329° Northwest  Level Estimated
Tue 10:48:15 PM 45.9893 9.2189 329° Northwest  Level Estimated
Tue 10:49:15 PM 46.0964 9.1267 329° Northwest  Level Estimated
Tue 10:50:15 PM 46.2033 9.0341 329° Northwest  Level Estimated
Tue 10:51:15 PM 46.3102 8.9412 329° Northwest  Level Estimated
Tue 10:52:15 PM 46.4170 8.8480 329° Northwest  Level Estimated
Tue 10:53:15 PM 46.5237 8.7543 329° Northwest  Level Estimated
Tue 10:54:15 PM 46.6303 8.6603 329° Northwest  Level Estimated
Tue 10:55:15 PM 46.7369 8.5660 329° Northwest  Level Estimated
Tue 10:56:15 PM 46.8434 8.4712 329° Northwest  Level Estimated
Tue 10:57:15 PM 46.9498 8.3761 329° Northwest  Level Estimated
Tue 10:58:15 PM 47.0561 8.2806 328° Northwest  Level Estimated
Tue 10:59:15 PM 47.1624 8.1847 328° Northwest  Level Estimated
Tue 11:00:15 PM 47.2686 8.0885 328° Northwest  Level Estimated
Tue 11:01:15 PM 47.3746 7.9918 328° Northwest  Level Estimated
Tue 11:02:15 PM 47.4807 7.8948 328° Northwest  Level Estimated
Tue 11:03:15 PM 47.5866 7.7973 328° Northwest  Level Estimated
Tue 11:04:15 PM 47.6924 7.6995 328° Northwest  Level Estimated
Tue 11:05:15 PM 47.7982 7.6013 328° Northwest  Level Estimated
Tue 11:06:15 PM 47.9039 7.5026 328° Northwest  Level Estimated
Tue 11:07:15 PM 48.0094 7.4036 328° Northwest  Level Estimated
Tue 11:08:15 PM 48.1149 7.3042 328° Northwest  Level Estimated
Tue 11:09:15 PM 48.2204 7.2043 328° Northwest  Level Estimated
Tue 11:10:15 PM 48.3257 7.1041 328° Northwest  Level Estimated
Tue 11:11:15 PM 48.4309 7.0034 328° Northwest  Level Estimated
Tue 11:12:15 PM 48.5361 6.9023 327° Northwest  Level Estimated
Tue 11:13:15 PM 48.6412 6.8008 327° Northwest  Level Estimated
Tue 11:14:15 PM 48.7461 6.6988 327° Northwest  Level Estimated
Tue 11:15:15 PM 48.8510 6.5965 327° Northwest  Level Estimated
Tue 11:16:15 PM 48.9558 6.4937 327° Northwest  Level Estimated
Tue 11:17:15 PM 49.0605 6.3905 327° Northwest  Level Estimated
Tue 11:18:15 PM 49.1651 6.2868 327° Northwest  Level Estimated
Tue 11:19:15 PM 49.2696 6.1827 327° Northwest  Level Estimated
Tue 11:20:15 PM 49.3741 6.0782 327° Northwest  Level Estimated
Tue 11:21:15 PM 49.4784 5.9732 327° Northwest  Level Estimated
Tue 11:22:15 PM 49.5826 5.8678 327° Northwest  Level Estimated
Tue 11:23:15 PM 49.6868 5.7619 327° Northwest  Level Estimated
Tue 11:24:15 PM 49.7908 5.6555 327° Northwest  Level Estimated
Tue 11:25:15 PM 49.8947 5.5487 326° Northwest  Level Estimated
Tue 11:26:15 PM 49.9986 5.4415 326° Northwest  Level Estimated
Tue 11:27:15 PM 50.1023 5.3337 326° Northwest  Level Estimated
Tue 11:28:15 PM 50.2060 5.2256 326° Northwest  Level Estimated
Tue 11:29:15 PM 50.3095 5.1169 326° Northwest  Level Estimated
Tue 11:30:15 PM 50.4130 5.0078 326° Northwest  Level Estimated
Tue 11:31:15 PM 50.5163 4.8981 326° Northwest  Level Estimated
Tue 11:32:15 PM 50.6195 4.7881 326° Northwest  Level Estimated
Tue 11:33:15 PM 50.7227 4.6775 326° Northwest  Level Estimated
Tue 11:34:15 PM 50.8257 4.5664 326° Northwest  Level Estimated
Tue 11:35:15 PM 50.9286 4.4549 146° Southeast  Level Estimated
Tue 11:36:15 PM 50.8257 4.5664 326° Northwest  Level Estimated
Tue 11:37:15 PM 50.9286 4.4549 146° Southeast  Level Estimated
Tue 11:38:15 PM 50.8257 4.5664 326° Northwest  Level Estimated
Tue 11:39:15 PM 50.9286 4.4549 146° Southeast  Level Estimated
Tue 11:40:15 PM 50.8257 4.5664 326° Northwest  Level Estimated
Tue 11:41:15 PM 50.9286 4.4549 146° Southeast  Level Estimated
Tue 11:42:15 PM 50.8257 4.5664 326° Northwest  Level Estimated
Tue 11:43:15 PM 50.9286 4.4549 146° Southeast  Level Estimated
Tue 11:44:15 PM 50.8257 4.5664 326° Northwest  Level Estimated
Tue 11:45:15 PM 50.9286 4.4549 146° Southeast  Level Estimated
Tue 11:46:15 PM 50.8257 4.5664 326° Northwest  Level Estimated
Tue 11:47:15 PM 50.9286 4.4549 146° Southeast  Level Estimated
Tue 11:48:15 PM 50.8257 4.5664 326° Northwest  Level Estimated
Tue 11:49:15 PM 50.9286 4.4549 146° Southeast  Level Estimated
Tue 11:50:15 PM 50.8257 4.5664 146° Southeast  Level Estimated

Login

Don't have an account? Register now (free) for customized features, flight alerts, and more!